Time;durP1;ratioP1;P1;durP2;ratioP2;P2;SDS_P1;SDS_P2;PMS_P1;PMS_P2;Temp;Humidity;BMP_temperature;BMP_pressure;BME280_temperature;BME280_humidity;BME280_pressure;Samples;Min_cycle;Max_cycle;Signal;HPM_P1;HPM_P2
2021/06/25 00:01:24;;;;;;;14.68;9.90;;;15.40;99.90;;;;;;5042588;28;20106;-74
2021/06/25 00:03:49;;;;;;;17.42;9.68;;;15.30;99.90;;;;;;5041330;28;20037;-74
2021/06/25 00:06:15;;;;;;;14.43;8.90;;;15.40;99.90;;;;;;5035103;28;20026;-73
2021/06/25 00:08:41;;;;;;;15.70;9.77;;;15.80;99.90;;;;;;5033936;28;20495;-73
2021/06/25 00:11:07;;;;;;;14.77;9.63;;;15.90;99.90;;;;;;5033728;28;20032;-73
2021/06/25 00:13:32;;;;;;;15.23;10.05;;;16.10;99.90;;;;;;5049022;28;20052;-73
2021/06/25 00:15:58;;;;;;;18.05;10.63;;;15.90;99.90;;;;;;5055011;28;20106;-74
2021/06/25 00:18:23;;;;;;;15.65;10.02;;;15.40;99.90;;;;;;5055056;28;20035;-74
2021/06/25 00:20:49;;;;;;;17.10;9.30;;;15.40;99.90;;;;;;5054697;28;20040;-73
2021/06/25 00:23:14;;;;;;;12.85;8.65;;;15.50;99.90;;;;;;5041540;28;20037;-75
2021/06/25 00:25:40;;;;;;;19.45;9.82;;;15.90;99.90;;;;;;5054728;28;20025;-75
2021/06/25 00:28:06;;;;;;;11.95;9.35;;;15.90;99.90;;;;;;5054792;28;20410;-75
2021/06/25 00:30:32;;;;;;;15.18;9.93;;;15.70;99.90;;;;;;5047460;28;20104;-75
2021/06/25 00:32:58;;;;;;;15.88;10.05;;;15.50;99.90;;;;;;5034754;28;20034;-74
2021/06/25 00:35:23;;;;;;;17.48;9.95;;;15.60;99.90;;;;;;5041697;28;20064;-75
2021/06/25 00:37:49;;;;;;;16.98;10.15;;;15.60;99.90;;;;;;5039693;28;20025;-75
2021/06/25 00:40:15;;;;;;;15.90;9.80;;;15.40;99.90;;;;;;5041426;28;20039;-75
2021/06/25 00:42:40;;;;;;;18.40;11.23;;;15.30;99.90;;;;;;5041325;28;20472;-75
2021/06/25 00:45:24;;;;;;;17.13;10.10;;;15.40;99.90;;;;;;5054457;28;20448;-74
2021/06/25 00:47:50;;;;;;;13.65;9.90;;;15.40;99.90;;;;;;5038462;28;20028;-74
2021/06/25 00:50:19;;;;;;;17.63;9.73;;;15.60;99.90;;;;;;5044985;28;20108;-75
2021/06/25 00:52:45;;;;;;;16.48;10.40;;;15.70;99.90;;;;;;5042167;28;20041;-74
2021/06/25 00:55:11;;;;;;;17.15;11.15;;;15.60;99.90;;;;;;5052883;28;20029;-74
2021/06/25 00:57:37;;;;;;;13.48;10.43;;;15.50;99.90;;;;;;5040979;28;20062;-73
2021/06/25 01:00:07;;;;;;;17.08;12.70;;;15.40;99.90;;;;;;5044355;28;20083;-75
2021/06/25 01:02:32;;;;;;;20.90;11.93;;;15.30;99.90;;;;;;5051360;28;20029;-75
2021/06/25 01:04:58;;;;;;;15.38;11.60;;;15.40;99.90;;;;;;5054253;28;20021;-75
2021/06/25 01:07:25;;;;;;;19.38;12.15;;;15.40;99.90;;;;;;5040665;28;20511;-75
2021/06/25 01:09:51;;;;;;;17.52;11.88;;;15.40;99.90;;;;;;5042759;28;20061;-75
2021/06/25 01:12:17;;;;;;;15.05;11.57;;;15.40;99.90;;;;;;5048168;28;20099;-76
2021/06/25 01:14:43;;;;;;;18.20;13.73;;;15.50;99.90;;;;;;5044139;28;20025;-76
2021/06/25 01:17:45;;;;;;;20.33;13.63;;;15.50;99.90;;;;;;5040726;28;20036;-76
2021/06/25 01:20:17;;;;;;;28.25;16.08;;;15.50;99.90;;;;;;5040263;28;20119;-76
2021/06/25 01:22:43;;;;;;;22.95;14.70;;;15.60;99.90;;;;;;5045110;28;20021;-75
2021/06/25 01:25:18;;;;;;;28.52;18.25;;;15.40;99.90;;;;;;5045987;28;20040;-75
2021/06/25 01:27:46;;;;;;;25.92;18.55;;;15.40;99.90;;;;;;5043677;28;20017;-75
2021/06/25 01:30:21;;;;;;;29.83;18.30;;;15.40;99.90;;;;;;5038681;28;20017;-76
2021/06/25 01:32:47;;;;;;;31.73;19.13;;;15.60;99.90;;;;;;5042384;28;20032;-75
2021/06/25 01:35:13;;;;;;;33.05;19.50;;;15.60;99.90;;;;;;5045973;28;20275;-75
2021/06/25 01:37:40;;;;;;;27.55;17.20;;;15.50;99.90;;;;;;5045023;28;20025;-75
2021/06/25 01:40:08;;;;;;;30.50;18.83;;;15.60;99.90;;;;;;5039683;28;20074;-75
2021/06/25 01:42:36;;;;;;;30.63;19.15;;;15.80;99.90;;;;;;5042191;28;20480;-75
2021/06/25 01:45:08;;;;;;;28.27;17.45;;;15.80;99.90;;;;;;5039735;28;20437;-75
2021/06/25 01:47:38;;;;;;;30.35;18.63;;;15.90;99.90;;;;;;5039683;28;20026;-75
2021/06/25 01:50:11;;;;;;;34.38;19.38;;;16.20;99.90;;;;;;5040919;28;20032;-75
2021/06/25 01:52:41;;;;;;;35.45;19.40;;;15.90;99.90;;;;;;5039979;28;20080;-75
2021/06/25 01:55:07;;;;;;;36.08;19.80;;;15.70;99.90;;;;;;5043043;28;20017;-75
2021/06/25 01:57:33;;;;;;;41.38;21.42;;;15.70;99.90;;;;;;5046565;28;20018;-75
2021/06/25 01:59:59;;;;;;;39.67;22.58;;;15.70;99.90;;;;;;5032984;28;20037;-75
2021/06/25 02:02:25;;;;;;;39.28;22.23;;;15.50;99.90;;;;;;5033153;28;20399;-76
2021/06/25 02:04:50;;;;;;;35.60;20.10;;;15.60;99.90;;;;;;5041386;28;20021;-75
2021/06/25 02:07:16;;;;;;;39.20;21.92;;;15.60;99.90;;;;;;5038057;28;20044;-76
2021/06/25 02:09:41;;;;;;;50.17;26.02;;;15.80;99.90;;;;;;5043905;28;20025;-77
2021/06/25 02:12:07;;;;;;;53.65;25.40;;;15.80;99.90;;;;;;5046843;28;20048;-76
2021/06/25 02:14:33;;;;;;;47.40;24.35;;;15.80;99.90;;;;;;5042121;28;20061;-75
2021/06/25 02:16:59;;;;;;;51.28;26.42;;;15.60;99.90;;;;;;5038085;28;20626;-75
2021/06/25 02:19:24;;;;;;;53.17;25.63;;;15.50;99.90;;;;;;5043728;28;20395;-76
2021/06/25 02:21:50;;;;;;;40.55;24.10;;;15.40;99.90;;;;;;5044966;28;20418;-76
2021/06/25 02:24:15;;;;;;;45.75;23.95;;;15.50;99.90;;;;;;5041610;28;20029;-75
2021/06/25 02:26:41;;;;;;;43.78;23.20;;;15.90;99.90;;;;;;5039310;28;20032;-76
2021/06/25 02:29:07;;;;;;;47.60;24.90;;;15.90;99.90;;;;;;5044210;28;20038;-76
2021/06/25 02:31:33;;;;;;;44.15;24.25;;;15.80;99.90;;;;;;5033454;28;20025;-76
2021/06/25 02:33:58;;;;;;;45.72;24.48;;;15.70;99.90;;;;;;5041777;28;20035;-76
2021/06/25 02:36:24;;;;;;;50.25;25.02;;;15.70;99.90;;;;;;5052086;28;20078;-76
2021/06/25 02:38:49;;;;;;;46.38;24.75;;;15.40;99.90;;;;;;5045855;28;20382;-76
2021/06/25 02:41:15;;;;;;;51.88;24.00;;;15.30;99.90;;;;;;5047233;28;20078;-76
2021/06/25 02:43:40;;;;;;;47.60;23.27;;;15.30;99.90;;;;;;5040525;28;20032;-74
2021/06/25 02:46:06;;;;;;;39.30;22.23;;;15.30;99.90;;;;;;5050427;28;20100;-76
2021/06/25 02:48:31;;;;;;;38.38;21.58;;;15.40;99.90;;;;;;5032520;28;20136;-74
2021/06/25 02:50:57;;;;;;;38.58;21.75;;;15.40;99.90;;;;;;5033320;28;20108;-75
2021/06/25 02:53:23;;;;;;;31.98;19.13;;;15.40;99.90;;;;;;5040705;28;20372;-75
2021/06/25 02:55:51;;;;;;;31.02;19.05;;;15.70;99.90;;;;;;5037463;28;20438;-75
2021/06/25 02:58:21;;;;;;;29.77;17.75;;;15.90;99.90;;;;;;5052156;28;20367;-75
2021/06/25 03:00:50;;;;;;;32.50;20.35;;;15.90;99.90;;;;;;5038430;28;20029;-76
2021/06/25 03:03:17;;;;;;;34.00;20.77;;;15.40;99.90;;;;;;5042531;28;20022;-77
2021/06/25 03:05:43;;;;;;;34.78;19.85;;;15.30;99.90;;;;;;5044385;28;20030;-77
2021/06/25 03:08:09;;;;;;;35.55;20.00;;;15.40;99.90;;;;;;5041117;28;20390;-77
2021/06/25 03:10:35;;;;;;;35.30;20.25;;;15.50;99.90;;;;;;5038624;28;20028;-77
2021/06/25 03:13:01;;;;;;;34.70;20.23;;;15.50;99.90;;;;;;5041315;28;20171;-77
2021/06/25 03:15:26;;;;;;;33.60;20.50;;;15.80;99.90;;;;;;5044212;28;20554;-76
2021/06/25 03:17:52;;;;;;;36.45;20.80;;;15.90;99.90;;;;;;5040785;28;20123;-76
2021/06/25 03:20:17;;;;;;;45.67;22.52;;;16.10;99.90;;;;;;5037889;28;20406;-74
2021/06/25 03:22:43;;;;;;;41.33;23.67;;;15.90;99.90;;;;;;5042181;28;20026;-75
2021/06/25 03:25:09;;;;;;;59.00;27.23;;;15.90;99.90;;;;;;5034201;28;20068;-76
2021/06/25 03:27:36;;;;;;;48.08;24.55;;;15.80;99.90;;;;;;5042538;28;20084;-76
2021/06/25 03:30:05;;;;;;;59.08;26.77;;;15.70;99.90;;;;;;5045104;28;20043;-76
2021/06/25 03:32:30;;;;;;;59.70;27.17;;;15.80;99.90;;;;;;5041012;28;20056;-76
2021/06/25 03:34:56;;;;;;;54.78;27.42;;;15.60;99.90;;;;;;5038137;28;20022;-75
2021/06/25 03:37:21;;;;;;;62.95;27.00;;;15.70;99.90;;;;;;5042589;28;20068;-76
2021/06/25 03:39:47;;;;;;;70.38;29.67;;;15.60;99.90;;;;;;5044832;28;20059;-75
2021/06/25 03:42:13;;;;;;;68.65;29.75;;;15.60;99.90;;;;;;5039525;28;20028;-75
2021/06/25 03:44:38;;;;;;;79.20;31.65;;;15.60;99.90;;;;;;5051449;28;20044;-75
2021/06/25 03:47:04;;;;;;;66.25;30.77;;;15.50;99.90;;;;;;5040877;28;20049;-76
2021/06/25 03:49:30;;;;;;;82.10;32.22;;;15.50;99.90;;;;;;5044579;28;20486;-75
2021/06/25 03:51:55;;;;;;;68.93;31.95;;;15.50;99.90;;;;;;5041390;28;20049;-77
2021/06/25 03:54:21;;;;;;;74.50;32.55;;;15.60;99.90;;;;;;5037311;28;20056;-76
2021/06/25 03:56:47;;;;;;;68.65;31.42;;;15.60;99.90;;;;;;5042761;28;20034;-77
2021/06/25 03:59:12;;;;;;;63.78;30.90;;;15.80;99.90;;;;;;5045585;28;20491;-75
2021/06/25 04:01:38;;;;;;;63.50;32.25;;;15.70;99.90;;;;;;5040412;28;20059;-75
2021/06/25 04:04:03;;;;;;;72.55;32.50;;;15.80;99.90;;;;;;5037927;28;20029;-77
2021/06/25 04:06:29;;;;;;;64.38;31.23;;;15.60;99.90;;;;;;5042377;28;20033;-76
2021/06/25 04:08:54;;;;;;;64.35;31.75;;;15.50;99.90;;;;;;5032240;28;20021;-76
2021/06/25 04:11:20;;;;;;;58.90;31.00;;;15.50;99.90;;;;;;5041440;28;20091;-77
2021/06/25 04:13:46;;;;;;;48.00;27.65;;;15.60;99.90;;;;;;5046194;28;20021;-77
2021/06/25 04:16:12;;;;;;;57.28;29.67;;;15.70;99.90;;;;;;5032665;28;20065;-75
2021/06/25 04:18:37;;;;;;;53.78;28.98;;;15.70;99.90;;;;;;5045106;28;20072;-76
2021/06/25 04:21:03;;;;;;;50.95;29.70;;;15.80;99.90;;;;;;5031295;28;20040;-76
2021/06/25 04:23:29;;;;;;;44.60;27.00;;;15.80;99.90;;;;;;5044783;28;20079;-75
2021/06/25 04:25:54;;;;;;;54.03;28.85;;;15.80;99.90;;;;;;5039859;28;20029;-76
2021/06/25 04:28:21;;;;;;;48.58;27.42;;;15.80;99.90;;;;;;5036500;28;20032;-76
2021/06/25 04:30:46;;;;;;;41.00;25.77;;;15.80;99.90;;;;;;5044708;28;20112;-77
2021/06/25 04:33:13;;;;;;;50.10;28.40;;;15.80;99.90;;;;;;5049964;28;20060;-76
2021/06/25 04:35:44;;;;;;;47.95;27.75;;;16.00;99.90;;;;;;5045282;28;20041;-77
2021/06/25 04:38:11;;;;;;;57.00;29.23;;;15.80;99.90;;;;;;5048256;28;20034;-77
2021/06/25 04:40:38;;;;;;;52.45;29.73;;;15.70;99.90;;;;;;5042549;28;20551;-77
2021/06/25 04:43:06;;;;;;;51.33;29.40;;;15.60;99.90;;;;;;5042267;28;20028;-75
2021/06/25 04:45:34;;;;;;;51.67;29.63;;;15.60;99.90;;;;;;5054802;28;20044;-75
2021/06/25 04:47:59;;;;;;;52.78;31.00;;;15.80;99.90;;;;;;5050502;28;20021;-74
2021/06/25 04:50:25;;;;;;;48.90;29.45;;;15.70;99.90;;;;;;5032973;28;20028;-75
2021/06/25 04:52:51;;;;;;;55.63;31.35;;;15.70;99.90;;;;;;5033458;28;20031;-75
2021/06/25 04:55:16;;;;;;;55.40;31.58;;;15.80;99.90;;;;;;5034445;28;20029;-74
2021/06/25 04:57:52;;;;;;;53.53;31.17;;;15.70;99.90;;;;;;5033533;28;20096;-76
2021/06/25 05:00:19;;;;;;;50.47;30.48;;;15.60;99.90;;;;;;5034747;28;20095;-75
2021/06/25 05:02:45;;;;;;;58.03;31.70;;;15.70;99.90;;;;;;5033056;28;20395;-74
2021/06/25 05:05:11;;;;;;;43.67;28.25;;;15.80;99.90;;;;;;5034365;28;20025;-75
2021/06/25 05:07:37;;;;;;;57.42;32.95;;;15.80;99.90;;;;;;5034066;28;20045;-75
2021/06/25 05:10:03;;;;;;;61.88;32.72;;;15.70;99.90;;;;;;5034038;28;20032;-74
2021/06/25 05:12:28;;;;;;;60.88;32.03;;;15.70;99.90;;;;;;5047429;28;20108;-73
2021/06/25 05:14:54;;;;;;;49.25;30.45;;;15.80;99.90;;;;;;5034035;28;20472;-74
2021/06/25 05:17:20;;;;;;;59.13;31.63;;;15.80;99.90;;;;;;5039926;28;20029;-74
2021/06/25 05:19:45;;;;;;;48.60;29.50;;;15.80;99.90;;;;;;5041842;28;20033;-74
2021/06/25 05:22:11;;;;;;;51.83;29.65;;;15.80;99.90;;;;;;5047135;28;20030;-78
2021/06/25 05:24:37;;;;;;;57.13;31.25;;;15.70;99.90;;;;;;5046697;28;20021;-74
2021/06/25 05:27:03;;;;;;;59.90;30.55;;;15.80;99.90;;;;;;5054047;28;20028;-72
2021/06/25 05:29:28;;;;;;;50.75;28.65;;;15.90;99.90;;;;;;5042243;28;20032;-74
2021/06/25 05:31:54;;;;;;;49.30;28.80;;;15.90;99.90;;;;;;5034345;28;20025;-72
2021/06/25 05:34:20;;;;;;;38.85;25.30;;;15.90;99.90;;;;;;5033774;28;20052;-75
2021/06/25 05:36:45;;;;;;;43.72;26.70;;;16.00;99.90;;;;;;5035115;28;20021;-73
2021/06/25 05:39:11;;;;;;;41.45;25.13;;;16.00;99.90;;;;;;5044899;28;20094;-73
2021/06/25 05:41:36;;;;;;;42.22;25.35;;;16.00;99.90;;;;;;5036671;28;20030;-74
2021/06/25 05:44:02;;;;;;;36.60;22.70;;;15.90;99.90;;;;;;5047099;28;20036;-74
2021/06/25 05:46:28;;;;;;;43.25;25.48;;;15.90;99.90;;;;;;5054339;28;20414;-74
2021/06/25 05:48:54;;;;;;;41.65;24.92;;;16.10;99.90;;;;;;5054217;28;20029;-73
2021/06/25 05:51:19;;;;;;;38.00;23.10;;;16.00;99.90;;;;;;5051128;28;20083;-74
2021/06/25 05:53:45;;;;;;;35.63;22.42;;;16.00;99.90;;;;;;5046794;28;20025;-74
2021/06/25 05:56:11;;;;;;;45.60;24.75;;;16.00;99.90;;;;;;5055834;28;20024;-74
2021/06/25 05:58:36;;;;;;;33.60;20.90;;;16.00;99.90;;;;;;5043582;28;20376;-74
2021/06/25 06:01:03;;;;;;;26.05;18.40;;;16.10;99.90;;;;;;5053037;28;20031;-73
2021/06/25 06:03:28;;;;;;;31.88;19.83;;;16.30;99.90;;;;;;5054100;28;20123;-73
2021/06/25 06:05:54;;;;;;;20.65;14.45;;;16.30;99.90;;;;;;5054615;28;20489;-74
2021/06/25 06:08:19;;;;;;;19.17;13.25;;;16.50;99.90;;;;;;5053234;28;20067;-74
2021/06/25 06:10:45;;;;;;;11.63;9.27;;;16.60;99.90;;;;;;5052903;28;20122;-74
2021/06/25 06:13:11;;;;;;;13.98;10.20;;;16.50;99.90;;;;;;5053873;28;20478;-73
2021/06/25 06:15:36;;;;;;;21.83;14.43;;;16.10;99.90;;;;;;5039649;28;20389;-73
2021/06/25 06:18:04;;;;;;;24.40;15.52;;;16.00;99.90;;;;;;5041423;28;20029;-74
2021/06/25 06:20:30;;;;;;;19.85;13.85;;;15.80;99.90;;;;;;5037892;28;20032;-74
2021/06/25 06:31:15;;;;;;;26.08;15.98;;;15.90;99.90;;;;;;5041257;28;20029;-74
2021/06/25 06:36:27;;;;;;;29.95;17.05;;;15.90;99.90;;;;;;5033944;28;20029;-74
2021/06/25 06:38:53;;;;;;;33.58;18.13;;;15.90;99.90;;;;;;5033903;28;20018;-74
2021/06/25 06:41:20;;;;;;;29.90;17.90;;;16.00;99.90;;;;;;5048426;28;20166;-74
2021/06/25 06:43:47;;;;;;;36.70;19.05;;;16.10;99.90;;;;;;5052578;28;20024;-74
2021/06/25 06:46:14;;;;;;;25.10;16.73;;;16.10;99.90;;;;;;5051772;28;20021;-75
2021/06/25 06:48:44;;;;;;;30.33;17.55;;;15.90;99.90;;;;;;5042281;28;20025;-74
2021/06/25 06:51:11;;;;;;;32.20;16.88;;;15.90;99.90;;;;;;5035721;28;20391;-74
2021/06/25 06:53:37;;;;;;;31.33;16.02;;;15.90;99.90;;;;;;5042140;28;20029;-74
2021/06/25 06:56:03;;;;;;;16.17;11.02;;;16.00;99.90;;;;;;5035254;28;20216;-74
2021/06/25 06:58:29;;;;;;;15.30;11.32;;;16.10;99.90;;;;;;5036948;28;20021;-72
2021/06/25 07:00:55;;;;;;;20.55;13.35;;;16.20;99.90;;;;;;5048879;28;20078;-73
2021/06/25 07:03:20;;;;;;;17.92;12.18;;;16.10;99.90;;;;;;5052014;28;20095;-74
2021/06/25 07:05:46;;;;;;;21.13;14.20;;;16.00;99.90;;;;;;5051661;28;20017;-74
2021/06/25 07:08:12;;;;;;;15.63;11.77;;;16.00;99.90;;;;;;5051979;28;20025;-74
2021/06/25 07:10:37;;;;;;;20.38;14.48;;;16.10;99.90;;;;;;5049009;28;20040;-74
2021/06/25 07:13:03;;;;;;;16.55;12.27;;;16.20;99.90;;;;;;5041152;28;20120;-73
2021/06/25 07:15:29;;;;;;;15.88;11.82;;;16.00;99.90;;;;;;5042427;28;20100;-74
2021/06/25 07:17:54;;;;;;;19.65;13.75;;;16.10;99.90;;;;;;5040672;28;20507;-74
2021/06/25 07:20:20;;;;;;;14.25;11.43;;;16.10;99.90;;;;;;5040240;28;20029;-74
2021/06/25 07:22:45;;;;;;;11.55;9.85;;;16.00;99.90;;;;;;5034958;28;20018;-73
2021/06/25 07:25:11;;;;;;;12.10;9.90;;;16.10;99.90;;;;;;5031828;28;20024;-72
2021/06/25 07:27:37;;;;;;;12.02;9.73;;;15.90;99.90;;;;;;5031762;28;20411;-74
2021/06/25 07:30:07;;;;;;;9.88;8.88;;;16.00;99.90;;;;;;5031442;28;20080;-74
2021/06/25 07:32:32;;;;;;;10.48;8.50;;;16.00;99.90;;;;;;5030367;28;20388;-74
2021/06/25 07:34:58;;;;;;;10.75;9.02;;;16.00;99.90;;;;;;5029811;28;20034;-74
2021/06/25 07:37:24;;;;;;;8.98;8.07;;;16.20;99.90;;;;;;5029698;28;20030;-74
2021/06/25 07:39:49;;;;;;;9.13;8.20;;;16.30;99.90;;;;;;5030987;28;20480;-74
2021/06/25 07:42:15;;;;;;;10.02;7.50;;;16.40;99.90;;;;;;5029576;28;20025;-74
2021/06/25 07:44:41;;;;;;;8.82;7.88;;;16.70;99.90;;;;;;5044586;28;20025;-74
2021/06/25 07:47:07;;;;;;;8.98;8.02;;;16.60;99.90;;;;;;5031652;28;20104;-74
2021/06/25 07:49:34;;;;;;;9.50;7.95;;;16.50;99.90;;;;;;5030103;28;20056;-74
2021/06/25 07:51:59;;;;;;;9.70;8.45;;;16.60;99.90;;;;;;5032729;28;20017;-74
2021/06/25 07:54:25;;;;;;;9.43;8.35;;;16.60;99.90;;;;;;5030309;28;20104;-75
2021/06/25 07:56:50;;;;;;;8.10;7.30;;;16.60;99.90;;;;;;5030471;28;20041;-74
2021/06/25 07:59:16;;;;;;;12.00;9.90;;;16.60;99.90;;;;;;5031477;28;20030;-74
2021/06/25 08:01:41;;;;;;;9.32;8.43;;;16.60;99.90;;;;;;5031727;28;20025;-72
2021/06/25 08:04:07;;;;;;;11.15;8.57;;;16.80;99.90;;;;;;5031139;28;20075;-74
2021/06/25 08:06:32;;;;;;;8.63;7.75;;;16.80;99.90;;;;;;5034436;28;20025;-74
2021/06/25 08:09:02;;;;;;;8.82;7.93;;;17.10;99.90;;;;;;5035709;28;20029;-74
2021/06/25 08:11:27;;;;;;;10.98;8.45;;;17.20;99.90;;;;;;5036227;28;20052;-74
2021/06/25 08:13:53;;;;;;;10.80;8.30;;;17.00;99.90;;;;;;5035963;28;20484;-74
2021/06/25 08:16:18;;;;;;;8.57;7.70;;;17.20;99.90;;;;;;5035988;28;20033;-74
2021/06/25 08:18:44;;;;;;;9.32;7.85;;;17.20;99.90;;;;;;5035985;28;20033;-73
2021/06/25 08:21:09;;;;;;;10.43;9.32;;;17.10;99.90;;;;;;5035618;28;20033;-74
2021/06/25 08:23:35;;;;;;;11.43;10.23;;;16.70;99.90;;;;;;5038440;28;20037;-76
2021/06/25 08:26:00;;;;;;;10.70;9.65;;;16.70;99.90;;;;;;5055027;28;20115;-75
2021/06/25 08:28:26;;;;;;;12.10;10.85;;;16.60;99.90;;;;;;5040346;28;20075;-75
2021/06/25 08:30:51;;;;;;;12.70;11.23;;;16.50;99.90;;;;;;5045010;28;20033;-75
2021/06/25 08:33:17;;;;;;;14.10;11.52;;;16.80;99.90;;;;;;5047003;28;20267;-75
2021/06/25 08:35:42;;;;;;;13.45;11.18;;;16.70;99.90;;;;;;5043401;28;20017;-76
2021/06/25 08:38:08;;;;;;;13.52;11.70;;;16.70;99.90;;;;;;5041554;28;20442;-75
2021/06/25 08:40:33;;;;;;;12.93;11.50;;;16.80;99.90;;;;;;5044975;28;20029;-75
2021/06/25 08:43:00;;;;;;;15.38;12.52;;;16.70;99.90;;;;;;5035109;28;20068;-73
2021/06/25 08:45:28;;;;;;;12.88;11.05;;;16.70;99.90;;;;;;5034764;28;20028;-72
2021/06/25 08:47:54;;;;;;;13.15;11.23;;;16.80;99.90;;;;;;5048455;28;20096;-72
2021/06/25 08:50:22;;;;;;;13.35;11.95;;;16.90;99.90;;;;;;5033767;28;20108;-72
2021/06/25 08:52:51;;;;;;;14.82;11.73;;;16.90;99.90;;;;;;5051055;28;20482;-72
2021/06/25 08:55:18;;;;;;;14.20;11.95;;;16.90;99.90;;;;;;5054498;28;20043;-74
2021/06/25 08:57:44;;;;;;;13.18;11.75;;;16.90;99.90;;;;;;5053069;28;20432;-74
2021/06/25 09:00:13;;;;;;;14.88;11.82;;;17.00;99.90;;;;;;5042539;28;20685;-74
2021/06/25 09:02:39;;;;;;;15.50;12.90;;;17.10;99.90;;;;;;5038500;28;20033;-74
2021/06/25 09:05:27;;;;;;;14.93;12.80;;;17.30;99.90;;;;;;5042304;28;20436;-74
2021/06/25 09:07:55;;;;;;;16.75;13.93;;;17.30;99.90;;;;;;5034348;28;20155;-73
2021/06/25 09:10:31;;;;;;;16.75;13.68;;;17.40;99.90;;;;;;5048541;28;20406;-74
2021/06/25 09:13:14;;;;;;;15.98;12.68;;;17.20;99.90;;;;;;5053114;28;20029;-74
2021/06/25 09:15:41;;;;;;;14.80;12.10;;;17.30;99.90;;;;;;5047595;28;20072;-74
2021/06/25 09:18:12;;;;;;;13.52;11.85;;;17.30;99.90;;;;;;5034512;28;20021;-72
2021/06/25 09:20:47;;;;;;;13.32;11.82;;;17.20;99.90;;;;;;5047587;28;20029;-72
2021/06/25 09:23:21;;;;;;;14.30;12.35;;;17.30;99.90;;;;;;5033392;28;20022;-74
2021/06/25 09:26:06;;;;;;;13.90;12.40;;;17.20;99.90;;;;;;5040549;28;20017;-74
2021/06/25 09:28:40;;;;;;;19.30;15.18;;;17.30;99.90;;;;;;5036384;28;20104;-74
2021/06/25 09:31:24;;;;;;;15.52;13.30;;;17.50;99.90;;;;;;5034458;28;20026;-74
2021/06/25 09:33:53;;;;;;;16.70;13.43;;;17.90;99.90;;;;;;5041379;28;20028;-75
2021/06/25 09:36:30;;;;;;;16.90;13.82;;;18.30;99.90;;;;;;5053909;28;20025;-74
2021/06/25 09:38:56;;;;;;;14.18;12.68;;;18.50;99.90;;;;;;5043785;28;20048;-72
2021/06/25 09:41:22;;;;;;;12.82;11.20;;;19.00;99.90;;;;;;5041262;28;20030;-72
2021/06/25 09:43:57;;;;;;;12.63;11.10;;;18.90;99.90;;;;;;5054886;28;20418;-72
2021/06/25 09:46:34;;;;;;;14.23;12.35;;;19.20;99.90;;;;;;5053746;28;20090;-72
2021/06/25 09:49:03;;;;;;;14.45;12.32;;;18.70;99.90;;;;;;5053562;28;20048;-72
2021/06/25 09:51:29;;;;;;;14.88;12.68;;;18.50;99.90;;;;;;5036996;28;20029;-73
2021/06/25 09:54:15;;;;;;;16.15;13.95;;;18.50;99.90;;;;;;5045506;28;20102;-72
2021/06/25 10:02:28;;;;;;;15.27;13.63;;;19.30;99.90;;;;;;5047935;28;20107;-72
2021/06/25 10:05:14;;;;;;;14.50;12.30;;;19.30;99.90;;;;;;5054409;28;20540;-74
2021/06/25 10:07:40;;;;;;;15.18;12.95;;;19.40;99.90;;;;;;5034906;28;20057;-73
2021/06/25 10:10:12;;;;;;;16.05;13.98;;;19.30;99.90;;;;;;5034001;28;20025;-73
2021/06/25 10:12:40;;;;;;;15.35;12.18;;;19.10;99.90;;;;;;5051808;28;20025;-74
2021/06/25 10:15:07;;;;;;;15.85;13.35;;;19.20;99.90;;;;;;5053442;28;20032;-74
2021/06/25 10:17:35;;;;;;;18.10;14.88;;;19.40;99.90;;;;;;5034024;28;20026;-74
2021/06/25 10:20:07;;;;;;;14.30;12.77;;;19.30;99.90;;;;;;5046193;28;20123;-74
2021/06/25 10:22:35;;;;;;;15.00;13.32;;;19.30;99.90;;;;;;5044718;28;20447;-72
2021/06/25 10:25:04;;;;;;;15.05;12.00;;;19.50;99.90;;;;;;5047822;28;20025;-72
2021/06/25 10:27:31;;;;;;;17.35;13.30;;;19.50;99.90;;;;;;5053033;28;20037;-72
2021/06/25 10:29:58;;;;;;;15.25;13.65;;;19.60;99.90;;;;;;5053505;28;20482;-72
2021/06/25 10:32:24;;;;;;;17.02;14.23;;;19.30;99.90;;;;;;5047941;28;20034;-72
2021/06/25 10:34:50;;;;;;;16.58;14.05;;;19.30;99.90;;;;;;5032223;28;20507;-72
2021/06/25 10:37:21;;;;;;;17.08;14.57;;;19.20;99.90;;;;;;5033730;28;20034;-72
2021/06/25 10:39:46;;;;;;;16.58;14.13;;;18.90;99.90;;;;;;5033452;28;20503;-72
2021/06/25 10:42:12;;;;;;;16.30;13.32;;;18.60;99.90;;;;;;5031632;28;20029;-75
2021/06/25 10:44:42;;;;;;;15.98;14.15;;;18.60;99.90;;;;;;5046585;28;20079;-74
2021/06/25 10:47:18;;;;;;;16.10;13.77;;;18.40;99.90;;;;;;5033317;28;20483;-75
2021/06/25 10:49:59;;;;;;;17.52;13.98;;;18.50;99.90;;;;;;5032964;28;20049;-73
2021/06/25 10:52:33;;;;;;;16.20;13.85;;;18.70;99.90;;;;;;5033529;28;20097;-75
2021/06/25 10:55:07;;;;;;;16.73;14.00;;;19.00;99.90;;;;;;5051882;28;20032;-74
2021/06/25 10:57:35;;;;;;;15.25;12.93;;;19.10;99.90;;;;;;5051246;28;20029;-75
2021/06/25 11:00:01;;;;;;;17.10;15.30;;;19.30;99.90;;;;;;5032969;28;20091;-72
2021/06/25 11:02:41;;;;;;;15.13;13.52;;;19.50;99.90;;;;;;5048434;28;20437;-73
2021/06/25 11:05:25;;;;;;;15.55;13.95;;;19.50;99.90;;;;;;5041972;28;20033;-72
2021/06/25 11:07:55;;;;;;;15.00;12.75;;;19.90;99.90;;;;;;5032811;28;20036;-72
2021/06/25 11:10:32;;;;;;;15.52;12.95;;;19.90;99.90;;;;;;5032516;28;20495;-74
2021/06/25 11:13:13;;;;;;;14.60;13.07;;;20.20;99.90;;;;;;5040565;28;20032;-72
2021/06/25 11:15:52;;;;;;;14.88;13.27;;;20.40;99.90;;;;;;5052249;28;20036;-73
2021/06/25 11:18:27;;;;;;;14.10;12.00;;;20.50;99.90;;;;;;5052386;28;20027;-75
2021/06/25 11:21:02;;;;;;;12.35;11.05;;;20.50;99.90;;;;;;5032529;28;20055;-74
2021/06/25 11:23:40;;;;;;;14.27;11.88;;;20.70;99.90;;;;;;5033005;28;20029;-76
2021/06/25 11:26:24;;;;;;;13.70;12.27;;;20.80;99.90;;;;;;5032648;28;20021;-76
2021/06/25 11:28:54;;;;;;;15.85;12.32;;;20.80;99.90;;;;;;5044297;28;20021;-74
2021/06/25 11:31:30;;;;;;;15.32;12.30;;;20.50;99.90;;;;;;5045740;28;20037;-73
2021/06/25 11:33:58;;;;;;;15.65;12.48;;;20.30;99.90;;;;;;5031278;28;20386;-72
2021/06/25 11:36:28;;;;;;;15.85;12.95;;;20.30;99.90;;;;;;5032237;28;20026;-74
2021/06/25 11:39:28;;;;;;;14.05;11.82;;;20.00;99.90;;;;;;5050312;28;20025;-75
2021/06/25 11:42:08;;;;;;;13.57;12.20;;;19.80;99.90;;;;;;5032751;28;20483;-73
2021/06/25 11:44:37;;;;;;;12.98;11.35;;;20.00;99.90;;;;;;5058062;28;20027;-72
2021/06/25 11:47:04;;;;;;;12.30;11.02;;;19.90;99.90;;;;;;5032634;28;20028;-74
2021/06/25 11:50:16;;;;;;;13.52;10.75;;;20.00;99.90;;;;;;5031263;28;20072;-74
2021/06/25 11:52:30;;;;;;;12.73;10.82;;;20.00;99.90;;;;;;5040838;28;20044;-75
2021/06/25 11:55:05;;;;;;;11.90;10.70;;;20.00;99.90;;;;;;5052400;28;20025;-74
2021/06/25 11:57:34;;;;;;;12.63;11.02;;;20.20;99.90;;;;;;5052755;28;20028;-74
2021/06/25 12:00:09;;;;;;;12.55;10.52;;;20.30;99.90;;;;;;5051124;28;20568;-74
2021/06/25 12:02:41;;;;;;;13.00;10.87;;;19.90;99.90;;;;;;5048807;28;20026;-72
2021/06/25 12:05:08;;;;;;;14.05;12.30;;;19.40;99.90;;;;;;5031369;28;20260;-72
2021/06/25 12:07:33;;;;;;;13.05;11.18;;;19.50;99.90;;;;;;5032341;28;20040;-72
2021/06/25 12:09:59;;;;;;;11.75;10.60;;;20.00;99.90;;;;;;5030776;28;20116;-74
2021/06/25 12:12:31;;;;;;;14.38;10.68;;;20.30;99.90;;;;;;5045643;28;20368;-72
2021/06/25 12:14:59;;;;;;;10.52;9.40;;;20.40;99.90;;;;;;5032920;28;20028;-74
2021/06/25 12:17:58;;;;;;;11.23;9.38;;;20.30;99.90;;;;;;5032870;28;20021;-72
2021/06/25 12:20:29;;;;;;;9.88;8.85;;;20.30;99.90;;;;;;4998925;28;20044;-72
2021/06/25 12:23:04;;;;;;;9.13;8.23;;;20.60;99.90;;;;;;5032101;28;20022;-72
2021/06/25 12:25:44;;;;;;;9.85;8.85;;;21.20;99.90;;;;;;5030772;28;20483;-72
2021/06/25 12:28:18;;;;;;;10.07;9.00;;;21.10;99.90;;;;;;5031690;28;20085;-72
2021/06/25 12:30:50;;;;;;;10.82;9.45;;;20.70;99.90;;;;;;5032059;28;20082;-74
2021/06/25 12:33:19;;;;;;;9.18;8.27;;;20.90;99.90;;;;;;5032522;28;20022;-74
2021/06/25 12:35:47;;;;;;;10.30;8.82;;;21.00;99.90;;;;;;5031409;28;20033;-74
2021/06/25 12:38:18;;;;;;;10.15;9.07;;;21.30;99.90;;;;;;5031974;28;20160;-74
2021/06/25 12:40:55;;;;;;;9.20;8.30;;;21.40;99.90;;;;;;5031921;28;20535;-75
2021/06/25 12:43:28;;;;;;;12.75;11.40;;;21.50;99.90;;;;;;5036666;28;20032;-74
2021/06/25 12:46:11;;;;;;;14.55;11.85;;;20.70;99.90;;;;;;5038807;28;20153;-74
2021/06/25 12:48:40;;;;;;;14.25;12.65;;;20.10;99.90;;;;;;5040020;28;20017;-74
2021/06/25 12:51:14;;;;;;;13.25;11.85;;;19.40;99.90;;;;;;5041566;28;20059;-73